Sign Up for Free

Track your rides and runs via your iPhone, Android or GPS device, analyze your performance, and compare with friends.

Blockhouse Challenge: Rouge Roubaix

Ride Segment Woodville, MS
  • 2.4km
    Distance
  • 4%
    Avg Grade
  • 8m
    Lowest Elev
  • 94m
    Highest Elev
  • 86m
    Elev Difference
  • Climb Category
    778 Attempts By 392 People

Men's Leaderboard

Rank Name Speed Power VAM Time
1 Andy Scarano 27.8km/h 327W 991 5:11
2 Brian Hill 27.7km/h 380W 988 5:12
3 Corey Ray Cadence Cyclery 27.5km/h 339W 978 5:15
3 Andrew Hammond 27.5km/h 383W Powermeter 978 5:15
3 Tristan Uhl 27.5km/h 318W 978 5:15
3 Michael Pincus 27.5km/h 360W Powermeter 978 5:15
7 Nathan Smith 27.4km/h 381W Powermeter 975 5:16
7 Colin Strickland 27.4km/h 423W Powermeter 975 5:16
7 Rugg * 27.4km/h 413W Powermeter 975 5:16
10 Parker K. 27.3km/h 314W 972 5:17
11 Frank Travieso 27.1km/h 373W 966 5:19
12 Tim Reinhart 26.9km/h 359W 957 5:22
13 Dayne Martin 26.6km/h 327W 945 5:26
13 Winston David 26.6km/h 368W Powermeter 945 5:26
15 Peter Reed - Marx Bensdorf Cycling 26.4km/h 425W Powermeter 940 5:28
16 Lars Finanger 26.2km/h 387W 931 5:31
16 Jake L. 26.2km/h 359W Powermeter 931 5:31
18 Brian Toone 26.1km/h 321W 928 5:32
19 mark hyatt 25.6km/h 353W Powermeter 912 5:38
19 John Stowe 25.6km/h 354W 912 5:38

Join Strava to see the full leaderboard

Women's Leaderboard

Rank Name Speed Power VAM Time
1 Alexis Zink 22.4km/h 235W 796 6:27
2 Jan B. 20.7km/h 245W Powermeter 737 6:58
3 Kristen Legan 20.0km/h 296W 713 7:12
4 Lauren D. 20.0km/h 220W Powermeter 712 7:13
5 Martha Lowe 19.9km/h 245W Powermeter 707 7:16
6 Meredith Miller 18.7km/h 197W 666 7:43
7 Liz Barcheck 18.6km/h 206W 663 7:45
8 Kate Powlison 18.5km/h 220W 660 7:47
9 Allison Bullock 18.5km/h 166W 657 7:49
9 Mary J. 18.5km/h 189W 657 7:49
11 Nicole Marcoe 18.0km/h 168W 642 8:00
12 samantha stein 17.2km/h 133W 611 8:24
13 Betty Jean Jordan 17.0km/h 143W 607 8:28
14 Indian Cycle Racing "Energizer Bunny " 15.5km/h 139W 550 9:20
15 Cinthia Pedraza 15.2km/h 126W 543 9:28
16 Amber S. 13.9km/h 125W 496 10:21
17 Melinda S. 13.9km/h 104W 493 10:25
18 Paula Sanematsu 13.5km/h 143W Powermeter 482 10:39
19 Gigi "Go Go" Carter -. 13.1km/h 98W Powermeter 465 11:03
20 Shelley E. 12.1km/h 128W 432 11:53